createdAt,value
2022-10-18T00:04:08.756Z,6.13
2022-10-18T00:09:10.888Z,6.63
2022-10-18T00:14:12.913Z,6.32
2022-10-18T00:19:14.992Z,6.45
2022-10-18T00:24:17.082Z,6.50
2022-10-18T00:29:18.902Z,6.45
2022-10-18T00:34:20.697Z,6.60
2022-10-18T00:39:23.093Z,6.40
2022-10-18T00:44:24.814Z,5.93
2022-10-18T00:49:43.878Z,5.97
2022-10-18T00:54:47.448Z,6.20
2022-10-18T00:59:49.403Z,6.68
2022-10-18T01:04:51.247Z,5.88
2022-10-18T01:10:14.245Z,5.70
2022-10-18T01:15:32.125Z,6.03
2022-10-18T01:21:09.219Z,5.88
2022-10-18T01:26:35.728Z,5.72
2022-10-18T01:31:48.082Z,5.95
2022-10-18T01:36:55.623Z,5.15
2022-10-18T01:42:00.999Z,5.40
2022-10-18T01:47:05.552Z,5.00
2022-10-18T01:52:09.337Z,4.78
2022-10-18T01:57:24.615Z,5.57
2022-10-18T02:02:48.763Z,4.93
2022-10-18T02:08:12.359Z,4.55
2022-10-18T02:13:22.725Z,5.70
2022-10-18T02:18:35.509Z,5.15
2022-10-18T02:23:39.042Z,5.22
2022-10-18T02:28:41.364Z,4.70
2022-10-18T02:34:21.714Z,5.40
2022-10-18T02:39:30.548Z,4.43
2022-10-18T02:44:33.744Z,5.00
2022-10-18T02:49:35.567Z,5.82
2022-10-18T02:54:37.434Z,4.65
2022-10-18T02:59:39.240Z,4.35
2022-10-18T03:04:41.071Z,4.93
2022-10-18T03:09:43.020Z,5.60
2022-10-18T03:14:44.877Z,4.55
2022-10-18T03:19:46.671Z,4.82
2022-10-18T03:24:48.506Z,4.55
2022-10-18T03:29:50.294Z,4.88
2022-10-18T03:34:52.076Z,4.53
2022-10-18T03:39:53.890Z,5.00
2022-10-18T03:44:55.694Z,5.00
2022-10-18T03:49:58.320Z,5.35
2022-10-18T03:55:00.151Z,4.63
2022-10-18T04:00:02.180Z,5.45
2022-10-18T04:05:14.250Z,4.70
2022-10-18T04:10:16.636Z,5.20
2022-10-18T04:15:18.685Z,5.40
2022-10-18T04:20:20.557Z,5.15
2022-10-18T04:25:22.527Z,4.53
2022-10-18T04:30:24.354Z,4.88
2022-10-18T04:35:27.840Z,4.32
2022-10-18T04:40:29.627Z,4.72
2022-10-18T04:45:31.456Z,5.28
2022-10-18T04:50:33.390Z,5.25
2022-10-18T04:55:35.493Z,5.15
2022-10-18T05:00:40.012Z,5.10
2022-10-18T05:06:00.954Z,5.18
2022-10-18T05:11:04.169Z,4.85
2022-10-18T05:16:06.835Z,5.13
2022-10-18T05:21:08.749Z,5.95
2022-10-18T05:26:10.546Z,6.05
2022-10-18T05:31:12.549Z,7.72
2022-10-18T05:36:14.384Z,7.72
2022-10-18T05:41:16.188Z,7.18
2022-10-18T05:46:18.020Z,7.57
2022-10-18T05:51:19.854Z,7.00
2022-10-18T05:56:21.777Z,6.82
2022-10-18T06:01:23.721Z,7.40
2022-10-18T06:06:25.516Z,6.90
2022-10-18T06:11:27.308Z,6.05
2022-10-18T06:16:32.370Z,6.07
2022-10-18T06:21:34.319Z,6.40
2022-10-18T06:26:36.100Z,6.57
2022-10-18T06:31:37.932Z,6.45
2022-10-18T06:36:39.706Z,6.78
2022-10-18T06:41:41.561Z,6.75
2022-10-18T06:46:54.167Z,6.00
2022-10-18T06:51:56.136Z,6.65
2022-10-18T06:56:58.358Z,5.72
2022-10-18T07:02:00.252Z,6.53
2022-10-18T07:07:02.160Z,5.72
2022-10-18T07:12:04.290Z,6.00
2022-10-18T07:17:06.131Z,5.45
2022-10-18T07:22:07.988Z,5.38
2022-10-18T07:27:09.800Z,5.50
2022-10-18T07:32:11.586Z,5.53
2022-10-18T07:37:13.367Z,6.75
2022-10-18T07:42:15.197Z,5.65
2022-10-18T07:47:17.130Z,6.28
2022-10-18T07:52:18.916Z,5.90
2022-10-18T07:57:21.270Z,6.05
2022-10-18T08:02:24.760Z,7.22
2022-10-18T08:07:26.824Z,7.40
2022-10-18T08:12:28.633Z,7.32
2022-10-18T08:17:30.772Z,10.68
2022-10-18T08:22:32.902Z,10.68
2022-10-18T08:27:35.080Z,11.20
2022-10-18T08:32:37.219Z,12.35
2022-10-18T08:37:40.393Z,11.82
2022-10-18T08:42:44.970Z,12.32
2022-10-18T08:47:49.974Z,10.48
2022-10-18T08:53:22.447Z,9.82
2022-10-18T08:58:31.676Z,9.52
2022-10-18T09:04:08.834Z,11.77
2022-10-18T09:09:16.614Z,12.80
2022-10-18T09:15:15.052Z,13.70
2022-10-18T09:20:23.213Z,12.50
2022-10-18T09:25:40.756Z,12.20
2022-10-18T09:30:57.186Z,10.45
2022-10-18T09:36:03.861Z,10.55
2022-10-18T09:41:13.970Z,9.85
2022-10-18T09:46:18.261Z,10.70
2022-10-18T09:51:24.129Z,11.00
2022-10-18T09:56:48.194Z,12.40
2022-10-18T10:01:50.009Z,13.63
2022-10-18T10:06:53.968Z,11.60
2022-10-18T10:11:56.891Z,12.93
2022-10-18T10:17:02.622Z,11.52
2022-10-18T10:22:04.418Z,12.75
2022-10-18T10:27:15.301Z,12.25
2022-10-18T10:32:19.840Z,11.85
2022-10-18T10:37:26.168Z,12.98
2022-10-18T10:42:28.077Z,11.63
2022-10-18T10:47:34.352Z,10.43
2022-10-18T10:52:40.286Z,18.65
2022-10-18T10:57:44.857Z,19.83
2022-10-18T11:02:59.236Z,20.23
2022-10-18T11:08:11.365Z,19.17
2022-10-18T11:13:23.825Z,17.92
2022-10-18T11:18:29.863Z,15.88
2022-10-18T11:23:33.424Z,15.20
2022-10-18T11:28:56.316Z,13.73
2022-10-18T11:34:17.649Z,12.05
2022-10-18T11:39:53.520Z,11.82
2022-10-18T11:45:04.459Z,11.50
2022-10-18T11:50:26.898Z,11.63
2022-10-18T11:55:44.059Z,10.85
2022-10-18T12:01:01.454Z,8.95
2022-10-18T12:06:22.329Z,10.02
2022-10-18T12:17:20.182Z,5.93
2022-10-18T12:27:52.050Z,5.38
2022-10-18T12:33:26.521Z,4.90
2022-10-18T12:38:32.015Z,3.80
2022-10-18T12:43:38.052Z,2.70
2022-10-18T12:48:43.163Z,2.30
2022-10-18T12:53:47.901Z,2.20
2022-10-18T12:58:49.707Z,2.30
2022-10-18T13:03:55.406Z,2.30
2022-10-18T13:09:21.449Z,2.00
2022-10-18T13:14:49.376Z,1.42
2022-10-18T13:20:27.322Z,1.55
2022-10-18T13:25:35.272Z,1.10
2022-10-18T13:31:10.722Z,1.50
2022-10-18T13:36:22.821Z,1.35
2022-10-18T13:41:56.713Z,1.20
2022-10-18T13:46:59.685Z,1.23
2022-10-18T13:52:29.474Z,0.98
2022-10-18T13:58:03.566Z,1.25
2022-10-18T14:03:55.555Z,1.40
2022-10-18T14:09:25.418Z,1.30
2022-10-18T14:14:36.795Z,1.50
2022-10-18T14:19:43.048Z,1.23
2022-10-18T14:24:48.914Z,1.35
2022-10-18T14:30:07.251Z,1.80
2022-10-18T14:35:33.247Z,1.30
2022-10-18T14:40:37.964Z,2.17
2022-10-18T14:45:40.904Z,1.42
2022-10-18T14:50:46.276Z,1.40
2022-10-18T14:56:04.493Z,1.20
2022-10-18T15:01:06.458Z,1.00
2022-10-18T15:06:08.632Z,1.23
2022-10-18T15:11:14.485Z,1.50
2022-10-18T15:16:22.671Z,1.55
2022-10-18T15:21:24.726Z,1.30
2022-10-18T15:26:30.176Z,1.75
2022-10-18T15:31:35.098Z,1.35
2022-10-18T15:36:37.628Z,1.25
2022-10-18T15:41:50.407Z,1.35
2022-10-18T15:46:55.873Z,2.42
2022-10-18T15:52:03.711Z,1.95
2022-10-18T15:57:10.450Z,1.70
2022-10-18T16:02:14.535Z,2.47
2022-10-18T16:07:16.417Z,1.92
2022-10-18T16:12:18.307Z,2.05
2022-10-18T16:17:20.143Z,3.15
2022-10-18T16:22:21.960Z,2.35
2022-10-18T16:27:25.082Z,2.83
2022-10-18T16:32:26.957Z,2.60
2022-10-18T16:37:28.802Z,2.40
2022-10-18T16:42:30.836Z,2.40
2022-10-18T16:47:32.874Z,3.22
2022-10-18T16:52:35.867Z,3.42
2022-10-18T16:57:37.735Z,3.92
2022-10-18T17:02:39.534Z,4.28
2022-10-18T17:07:41.896Z,2.40
2022-10-18T17:12:43.994Z,3.05
2022-10-18T17:17:47.715Z,2.30
2022-10-18T17:22:49.661Z,2.28
2022-10-18T17:27:51.443Z,2.55
2022-10-18T17:32:55.377Z,2.00
2022-10-18T17:37:57.390Z,2.95
2022-10-18T17:42:59.645Z,2.50
2022-10-18T17:48:01.722Z,4.55
2022-10-18T17:53:03.587Z,3.88
2022-10-18T17:58:05.767Z,2.50
2022-10-18T18:03:07.637Z,2.80
2022-10-18T18:08:09.491Z,3.13
2022-10-18T18:13:14.051Z,2.17
2022-10-18T18:18:18.789Z,2.70
2022-10-18T18:23:20.880Z,3.72
2022-10-18T18:28:22.799Z,2.70
2022-10-18T18:33:24.691Z,2.85
2022-10-18T18:38:26.870Z,2.67
2022-10-18T18:43:29.084Z,2.90
2022-10-18T18:48:32.918Z,4.95
2022-10-18T18:53:35.148Z,4.45
2022-10-18T18:58:38.415Z,2.83
2022-10-18T19:03:40.927Z,3.53
2022-10-18T19:08:46.411Z,3.20
2022-10-18T19:13:49.084Z,3.40
2022-10-18T19:19:05.420Z,3.60
2022-10-18T19:24:07.639Z,3.75
2022-10-18T19:29:13.517Z,4.15
2022-10-18T19:34:17.285Z,4.65
2022-10-18T19:39:22.036Z,3.83
2022-10-18T19:44:26.218Z,4.35
2022-10-18T19:49:28.874Z,4.55
2022-10-18T19:54:30.946Z,4.60
2022-10-18T19:59:32.897Z,5.43
2022-10-18T20:04:35.261Z,5.38
2022-10-18T20:09:37.055Z,4.28
2022-10-18T20:14:38.963Z,5.05
2022-10-18T20:19:40.781Z,5.18
2022-10-18T20:24:42.507Z,5.20
2022-10-18T20:29:44.266Z,4.38
2022-10-18T20:34:45.999Z,4.63
2022-10-18T20:39:47.768Z,5.43
2022-10-18T20:44:50.090Z,6.18
2022-10-18T20:49:51.873Z,6.22
2022-10-18T20:54:53.681Z,7.10
2022-10-18T20:59:55.472Z,5.93
2022-10-18T21:04:57.273Z,8.02
2022-10-18T21:09:59.100Z,7.30
2022-10-18T21:15:00.885Z,6.45
2022-10-18T21:20:02.935Z,7.07
2022-10-18T21:25:05.215Z,7.13
2022-10-18T21:30:07.654Z,6.57
2022-10-18T21:35:10.242Z,8.00
2022-10-18T21:40:12.323Z,8.10
2022-10-18T21:45:14.400Z,9.10
2022-10-18T21:50:16.627Z,10.35
2022-10-18T21:55:18.590Z,9.88
2022-10-18T22:00:20.551Z,10.48
2022-10-18T22:05:22.536Z,9.95
2022-10-18T22:10:24.773Z,10.52
2022-10-18T22:15:26.888Z,12.68
2022-10-18T22:20:28.876Z,11.93
2022-10-18T22:25:30.866Z,12.73
2022-10-18T22:30:36.503Z,12.80
2022-10-18T22:35:38.462Z,14.05
2022-10-18T22:40:40.368Z,13.00
2022-10-18T22:45:42.365Z,15.20
2022-10-18T22:50:44.304Z,13.73
2022-10-18T22:55:48.436Z,13.90
2022-10-18T23:00:50.617Z,13.85
2022-10-18T23:05:52.524Z,14.63
2022-10-18T23:10:56.800Z,15.15
2022-10-18T23:16:04.543Z,13.57
2022-10-18T23:21:12.504Z,15.30
2022-10-18T23:26:16.361Z,13.43
2022-10-18T23:31:22.016Z,13.18
2022-10-18T23:36:24.838Z,13.27
2022-10-18T23:41:27.184Z,13.85
2022-10-18T23:46:29.126Z,12.68
2022-10-18T23:51:31.048Z,13.23
2022-10-18T23:56:32.967Z,12.32
